Time;durP1;ratioP1;P1;durP2;ratioP2;P2;SDS_P1;SDS_P2;PMS_P1;PMS_P2;Temp;Humidity;BMP_temperature;BMP_pressure;BME280_temperature;BME280_humidity;BME280_pressure;Samples;Min_cycle;Max_cycle;Signal;HPM_P1;HPM_P2
2024/04/02 00:00:02;;;;;;;;;;;;;;;16.88;46.50;100114.94;5088570;28;1101;-45
2024/04/02 00:02:34;;;;;;;;;;;;;;;16.77;46.36;100119.72;5082939;28;1074;-47
2024/04/02 00:05:00;;;;;;;;;;;;;;;16.69;45.99;100125.84;5078185;28;1082;-45
2024/04/02 00:07:25;;;;;;;;;;;;;;;16.68;45.66;100122.28;5096113;28;1063;-48
2024/04/02 00:09:51;;;;;;;;;;;;;;;17.30;47.06;100116.13;5086689;28;1200;-48
2024/04/02 00:12:17;;;;;;;;;;;;;;;17.52;48.00;100121.06;5096299;28;1076;-45
2024/04/02 00:14:42;;;;;;;;;;;;;;;17.13;47.97;100124.03;5098053;28;1065;-48
2024/04/02 00:17:08;;;;;;;;;;;;;;;16.86;47.64;100120.75;5095161;28;1902;-48
2024/04/02 00:19:33;;;;;;;;;;;;;;;16.87;46.60;100114.16;5089416;28;1054;-45
2024/04/02 00:21:59;;;;;;;;;;;;;;;17.86;47.85;100113.72;5098423;28;1081;-45
2024/04/02 00:24:24;;;;;;;;;;;;;;;17.15;48.44;100113.56;5098314;28;1055;-47
2024/04/02 00:26:50;;;;;;;;;;;;;;;17.05;47.61;100109.00;5098556;28;1062;-46
2024/04/02 00:29:17;;;;;;;;;;;;;;;16.92;46.81;100114.09;5097634;28;1176;-47
2024/04/02 00:31:43;;;;;;;;;;;;;;;17.60;47.58;100116.84;5097888;28;1066;-48
2024/04/02 00:34:08;;;;;;;;;;;;;;;17.28;48.07;100121.09;5097782;28;1125;-45
2024/04/02 00:36:34;;;;;;;;;;;;;;;16.98;47.57;100112.09;5097459;28;1977;-43
2024/04/02 00:38:59;;;;;;;;;;;;;;;16.87;46.52;100116.88;5098076;28;1109;-47
2024/04/02 00:41:25;;;;;;;;;;;;;;;17.25;47.13;100107.94;5083895;28;1181;-43
2024/04/02 00:43:50;;;;;;;;;;;;;;;17.20;48.07;100108.03;5087319;28;1122;-46
2024/04/02 00:46:16;;;;;;;;;;;;;;;16.92;47.41;100105.06;5090451;28;1154;-46
2024/04/02 00:48:41;;;;;;;;;;;;;;;16.86;47.04;100093.28;5088722;28;1137;-47
2024/04/02 00:51:07;;;;;;;;;;;;;;;16.75;46.40;100081.59;5083925;28;1130;-43
2024/04/02 00:53:32;;;;;;;;;;;;;;;17.74;46.99;100090.22;5090305;28;1162;-46
2024/04/02 00:55:58;;;;;;;;;;;;;;;17.09;47.69;100086.16;5096935;28;1906;-43
2024/04/02 00:58:23;;;;;;;;;;;;;;;16.99;47.01;100091.78;5068721;28;1137;-48
2024/04/02 01:00:50;;;;;;;;;;;;;;;16.77;46.97;100084.88;5094383;28;1178;-45
2024/04/02 01:03:15;;;;;;;;;;;;;;;17.78;47.16;100083.03;5097271;28;1062;-44
2024/04/02 01:05:41;;;;;;;;;;;;;;;17.04;47.74;100078.00;5079708;28;1209;-49
2024/04/02 01:08:08;;;;;;;;;;;;;;;16.91;47.31;100081.44;5087904;28;1109;-45
2024/04/02 01:10:33;;;;;;;;;;;;;;;17.66;48.13;100079.91;5092691;28;1292;-46
2024/04/02 01:12:59;;;;;;;;;;;;;;;17.06;48.19;100091.44;5079301;28;1074;-48
2024/04/02 01:15:25;;;;;;;;;;;;;;;17.02;47.66;100079.41;5096969;28;1902;-47
2024/04/02 01:17:50;;;;;;;;;;;;;;;16.87;47.10;100077.59;5092384;28;1112;-49
2024/04/02 01:20:16;;;;;;;;;;;;;;;16.74;46.71;100074.44;5093763;28;1063;-45
2024/04/02 01:22:41;;;;;;;;;;;;;;;17.08;46.99;100073.56;5097383;28;1085;-44
2024/04/02 01:25:07;;;;;;;;;;;;;;;17.25;47.60;100070.31;5096997;28;1041;-47
2024/04/02 01:27:33;;;;;;;;;;;;;;;16.92;47.36;100075.66;5097087;28;1105;-49
2024/04/02 01:29:58;;;;;;;;;;;;;;;18.00;47.40;100081.59;5095326;28;1148;-45
2024/04/02 01:32:24;;;;;;;;;;;;;;;17.16;48.33;100068.50;5097005;28;1053;-45
2024/04/02 01:34:49;;;;;;;;;;;;;;;17.07;47.58;100065.59;5093640;28;1965;-47
2024/04/02 01:37:15;;;;;;;;;;;;;;;16.96;47.03;100069.56;5086537;28;1156;-49
2024/04/02 01:39:40;;;;;;;;;;;;;;;17.36;47.30;100064.66;5096808;28;1097;-45
2024/04/02 01:42:06;;;;;;;;;;;;;;;17.70;48.17;100066.38;5096150;28;1066;-44
2024/04/02 01:44:31;;;;;;;;;;;;;;;17.20;47.95;100070.38;5093539;28;1053;-45
2024/04/02 01:46:57;;;;;;;;;;;;;;;16.99;47.76;100067.06;5085725;28;1051;-46
2024/04/02 01:49:22;;;;;;;;;;;;;;;16.99;47.42;100066.25;5093654;28;1101;-46
2024/04/02 01:51:48;;;;;;;;;;;;;;;17.67;48.10;100073.28;5085771;28;1031;-46
2024/04/02 01:54:13;;;;;;;;;;;;;;;17.15;48.28;100070.41;5085128;28;1148;-45
2024/04/02 01:56:39;;;;;;;;;;;;;;;17.02;47.49;100077.47;5086990;28;1913;-44
2024/04/02 01:59:04;;;;;;;;;;;;;;;16.92;46.96;100085.81;5092069;28;1121;-49
2024/04/02 02:01:30;;;;;;;;;;;;;;;16.83;46.34;100082.06;5096353;28;1145;-44
2024/04/02 02:03:55;;;;;;;;;;;;;;;16.81;46.05;100089.78;5096413;28;1105;-47
2024/04/02 02:06:21;;;;;;;;;;;;;;;17.87;47.40;100087.84;5091041;28;1077;-50
2024/04/02 02:08:46;;;;;;;;;;;;;;;17.14;48.11;100089.94;5092599;28;1028;-45
2024/04/02 02:11:12;;;;;;;;;;;;;;;17.01;47.56;100088.75;5096042;28;1158;-50
2024/04/02 02:13:38;;;;;;;;;;;;;;;17.27;47.50;100092.00;5082315;28;1101;-49
2024/04/02 02:16:03;;;;;;;;;;;;;;;17.45;47.83;100088.44;5096402;28;1918;-46
2024/04/02 02:18:29;;;;;;;;;;;;;;;17.00;47.84;100078.84;5092070;28;1213;-47
2024/04/02 02:20:55;;;;;;;;;;;;;;;16.93;46.96;100085.53;5096466;28;1152;-44
2024/04/02 02:23:21;;;;;;;;;;;;;;;16.83;46.68;100087.53;5095569;28;1104;-45
2024/04/02 02:25:46;;;;;;;;;;;;;;;16.79;46.13;100086.47;5096559;28;1061;-47
2024/04/02 02:28:12;;;;;;;;;;;;;;;17.90;47.47;100088.06;5096058;28;1083;-46
2024/04/02 02:30:37;;;;;;;;;;;;;;;17.27;48.22;100081.00;5090004;28;1101;-47
2024/04/02 02:33:03;;;;;;;;;;;;;;;17.04;47.54;100091.72;5088775;28;1095;-47
2024/04/02 02:35:28;;;;;;;;;;;;;;;16.95;46.94;100092.66;5084514;28;1990;-44
2024/04/02 02:37:54;;;;;;;;;;;;;;;18.05;47.28;100091.72;5082670;28;1197;-44
2024/04/02 02:40:19;;;;;;;;;;;;;;;17.24;47.97;100081.59;5087636;28;1516;-45
2024/04/02 02:42:45;;;;;;;;;;;;;;;17.09;47.25;100085.34;5085302;28;1067;-48
2024/04/02 02:45:10;;;;;;;;;;;;;;;16.81;46.78;100076.03;5088020;28;1114;-47
2024/04/02 02:47:36;;;;;;;;;;;;;;;16.75;46.33;100067.84;5090694;28;1158;-47
2024/04/02 02:50:03;;;;;;;;;;;;;;;17.01;46.03;100089.56;5096182;28;1062;-46
2024/04/02 02:52:28;;;;;;;;;;;;;;;17.48;47.81;100091.72;5094388;28;1141;-49
2024/04/02 02:54:54;;;;;;;;;;;;;;;16.99;47.62;100088.22;5076321;28;1988;-46
2024/04/02 02:57:20;;;;;;;;;;;;;;;16.88;47.18;100079.25;5091108;28;1103;-46
2024/04/02 02:59:45;;;;;;;;;;;;;;;16.76;46.29;100077.72;5095939;28;1010;-45
2024/04/02 03:02:11;;;;;;;;;;;;;;;16.66;46.01;100080.59;5095516;28;1085;-46
2024/04/02 03:04:36;;;;;;;;;;;;;;;17.88;47.00;100075.72;5095619;28;1120;-48
2024/04/02 03:07:02;;;;;;;;;;;;;;;17.19;48.04;100076.16;5095576;28;1042;-45
2024/04/02 03:09:27;;;;;;;;;;;;;;;16.92;47.49;100066.59;5091235;28;1209;-46
2024/04/02 03:11:53;;;;;;;;;;;;;;;16.79;46.63;100076.34;5084015;28;1025;-46
2024/04/02 03:14:18;;;;;;;;;;;;;;;16.73;46.04;100081.06;5099085;28;1014;-47
2024/04/02 03:16:44;;;;;;;;;;;;;;;17.36;46.79;100087.47;5085863;28;2031;-46
2024/04/02 03:19:09;;;;;;;;;;;;;;;17.51;47.86;100075.44;5083433;28;1219;-47
2024/04/02 03:21:35;;;;;;;;;;;;;;;17.01;47.87;100073.09;5089298;28;1027;-49
2024/04/02 03:24:01;;;;;;;;;;;;;;;16.91;47.13;100071.28;5089469;28;1082;-49
2024/04/02 03:26:26;;;;;;;;;;;;;;;17.92;47.29;100066.63;5081654;28;1031;-45
2024/04/02 03:28:52;;;;;;;;;;;;;;;17.18;47.96;100066.28;5094897;28;1042;-53
2024/04/02 03:31:17;;;;;;;;;;;;;;;17.06;47.21;100059.28;5081217;28;1023;-48
2024/04/02 03:33:43;;;;;;;;;;;;;;;16.86;46.91;100059.53;5083849;28;1086;-49
2024/04/02 03:36:08;;;;;;;;;;;;;;;17.99;47.45;100054.41;5085805;28;1886;-46
2024/04/02 03:38:34;;;;;;;;;;;;;;;17.14;48.31;100051.50;5095046;28;1438;-52
2024/04/02 03:41:06;;;;;;;;;;;;;;;17.05;47.15;100043.91;5098371;28;1077;-48
2024/04/02 03:43:32;;;;;;;;;;;;;;;16.94;46.65;100050.63;5090597;28;2550;-48
2024/04/02 03:45:57;;;;;;;;;;;;;;;17.46;47.63;100050.78;5098692;28;1091;-48
2024/04/02 03:48:23;;;;;;;;;;;;;;;17.44;47.87;100051.06;5080186;28;1277;-50
2024/04/02 03:50:49;;;;;;;;;;;;;;;16.96;47.80;100047.59;5098499;28;1089;-49
2024/04/02 03:53:14;;;;;;;;;;;;;;;16.89;46.91;100031.50;5094467;28;1182;-50
2024/04/02 03:55:40;;;;;;;;;;;;;;;16.74;46.65;100030.53;5097926;28;1910;-50
2024/04/02 03:58:05;;;;;;;;;;;;;;;16.84;45.91;100034.28;5082560;28;1221;-48
2024/04/02 04:03:09;;;;;;;;;;;;;;;17.01;47.49;100051.13;5036186;27;1520331;-48
2024/04/02 04:05:34;;;;;;;;;;;;;;;16.90;46.91;100041.34;5093711;28;1102;-50
2024/04/02 04:08:00;;;;;;;;;;;;;;;17.63;45.98;100039.25;5087794;28;1095;-49
2024/04/02 04:10:25;;;;;;;;;;;;;;;17.45;46.49;100033.47;5093466;28;1018;-52
2024/04/02 04:12:51;;;;;;;;;;;;;;;17.14;47.62;100035.00;5071401;28;1235;-57
2024/04/02 04:15:17;;;;;;;;;;;;;;;16.98;48.06;100037.16;5086117;28;2780;-54
2024/04/02 04:17:42;;;;;;;;;;;;;;;16.89;48.56;100050.72;5079783;28;1026;-52
2024/04/02 04:20:08;;;;;;;;;;;;;;;16.74;48.93;100057.97;5089384;28;869;-55
2024/04/02 04:22:33;;;;;;;;;;;;;;;16.57;49.26;100052.16;5089610;28;1988;-52
2024/04/02 04:25:01;;;;;;;;;;;;;;;16.52;49.76;100044.78;5076542;28;1125;-52
2024/04/02 04:27:32;;;;;;;;;;;;;;;16.47;49.97;100055.00;5087679;28;1016;-55
2024/04/02 04:30:00;;;;;;;;;;;;;;;16.40;50.28;100053.41;5092342;28;877;-48
2024/04/02 04:32:26;;;;;;;;;;;;;;;16.32;50.53;100051.28;5082018;28;983;-53
2024/04/02 04:34:51;;;;;;;;;;;;;;;16.31;50.39;100063.38;5073277;28;1488;-49
2024/04/02 04:37:17;;;;;;;;;;;;;;;16.17;51.06;100055.03;5077054;28;1275;-54
2024/04/02 04:39:42;;;;;;;;;;;;;;;16.14;51.13;100047.34;5059684;28;1128;-50
2024/04/02 04:42:08;;;;;;;;;;;;;;;16.12;51.11;100040.50;5082805;28;1972;-51
2024/04/02 04:44:33;;;;;;;;;;;;;;;17.63;47.69;100053.00;5079591;28;1242;-50
2024/04/02 04:46:59;;;;;;;;;;;;;;;16.97;49.31;100027.28;5062882;28;1107;-47
2024/04/02 04:49:25;;;;;;;;;;;;;;;16.62;50.25;100037.53;5086152;28;1064;-49
2024/04/02 04:51:50;;;;;;;;;;;;;;;16.43;50.92;100039.09;5062945;28;1091;-46
2024/04/02 04:54:16;;;;;;;;;;;;;;;16.31;51.10;100032.38;5076214;28;1147;-46
2024/04/02 04:56:41;;;;;;;;;;;;;;;16.26;51.20;100030.50;5082510;28;854;-48
2024/04/02 04:59:07;;;;;;;;;;;;;;;16.17;51.61;100024.84;5086053;28;1086;-47
2024/04/02 05:01:32;;;;;;;;;;;;;;;17.27;49.44;100029.59;5081927;28;1984;-52
2024/04/02 05:03:58;;;;;;;;;;;;;;;17.54;48.34;100019.06;5078075;28;1197;-54
2024/04/02 05:06:23;;;;;;;;;;;;;;;16.92;49.99;100025.41;5092498;28;1098;-54
2024/04/02 05:08:49;;;;;;;;;;;;;;;16.60;51.03;100013.13;5080476;28;1101;-49
2024/04/02 05:11:14;;;;;;;;;;;;;;;16.50;51.48;100016.00;5092626;28;1059;-48
2024/04/02 05:13:40;;;;;;;;;;;;;;;16.40;51.37;100015.00;5070500;28;1091;-51
2024/04/02 05:16:06;;;;;;;;;;;;;;;16.29;51.84;100007.19;5069015;28;1119;-55
2024/04/02 05:18:34;;;;;;;;;;;;;;;16.20;52.02;100009.72;5075371;28;1072;-50
2024/04/02 05:21:00;;;;;;;;;;;;;;;17.01;50.58;100012.66;5063758;28;1910;-56
2024/04/02 05:23:28;;;;;;;;;;;;;;;17.54;48.94;100002.56;5072629;28;1080;-52
2024/04/02 05:25:57;;;;;;;;;;;;;;;16.89;50.63;100001.28;5069726;28;1064;-51
2024/04/02 05:28:22;;;;;;;;;;;;;;;16.57;51.36;99998.06;5074341;28;1146;-53
2024/04/02 05:30:48;;;;;;;;;;;;;;;16.51;51.53;99995.66;5070024;28;1159;-48
2024/04/02 05:33:13;;;;;;;;;;;;;;;16.35;52.00;99987.59;5062151;28;1074;-47
2024/04/02 05:35:39;;;;;;;;;;;;;;;16.27;52.26;99984.69;5059695;28;1106;-49
2024/04/02 05:38:06;;;;;;;;;;;;;;;16.87;51.01;99981.50;5075307;28;1056;-53
2024/04/02 05:40:32;;;;;;;;;;;;;;;17.70;48.90;99986.66;5068241;28;1059;-54
2024/04/02 05:42:58;;;;;;;;;;;;;;;16.92;50.73;99987.78;5061639;28;1984;-53
2024/04/02 05:45:24;;;;;;;;;;;;;;;16.69;51.48;99972.97;5071367;28;923;-53
2024/04/02 05:47:49;;;;;;;;;;;;;;;16.54;51.86;99979.44;5075377;28;1043;-52
2024/04/02 05:50:15;;;;;;;;;;;;;;;16.73;51.80;99957.53;5058352;28;1067;-52
2024/04/02 05:52:41;;;;;;;;;;;;;;;16.73;52.23;99967.69;5072172;28;1102;-50
2024/04/02 05:55:06;;;;;;;;;;;;;;;16.63;52.36;99968.63;5058383;28;1103;-53
2024/04/02 05:57:32;;;;;;;;;;;;;;;16.42;52.94;99973.53;5072580;28;883;-53
2024/04/02 05:59:57;;;;;;;;;;;;;;;16.28;53.18;99970.69;5050028;28;1028;-50
2024/04/02 06:02:23;;;;;;;;;;;;;;;16.16;53.23;99970.25;5075172;28;1910;-50
2024/04/02 06:04:48;;;;;;;;;;;;;;;16.11;53.65;99973.88;5068748;28;1139;-53
2024/04/02 06:07:14;;;;;;;;;;;;;;;17.03;51.97;99976.66;5075007;28;1406;-51
2024/04/02 06:09:40;;;;;;;;;;;;;;;17.89;49.49;99973.66;5065672;28;852;-52
2024/04/02 06:12:06;;;;;;;;;;;;;;;17.28;51.25;99965.28;5060514;28;1142;-53
2024/04/02 06:14:31;;;;;;;;;;;;;;;17.03;52.24;99977.47;5068980;28;1059;-51
2024/04/02 06:16:57;;;;;;;;;;;;;;;16.98;52.47;99963.00;5071453;28;1167;-51
2024/04/02 06:19:22;;;;;;;;;;;;;;;16.87;52.45;99971.34;5058236;28;1199;-51
2024/04/02 06:21:48;;;;;;;;;;;;;;;16.57;53.13;99967.06;5059072;28;1909;-52
2024/04/02 06:24:13;;;;;;;;;;;;;;;16.42;53.58;99974.38;5067166;28;1087;-52
2024/04/02 06:26:39;;;;;;;;;;;;;;;16.34;53.72;99961.28;5077226;28;1063;-53
2024/04/02 06:29:04;;;;;;;;;;;;;;;16.24;53.93;99964.13;5068622;28;1138;-55
2024/04/02 06:31:30;;;;;;;;;;;;;;;16.26;53.63;99953.72;5057574;28;1040;-55
2024/04/02 06:33:56;;;;;;;;;;;;;;;16.28;53.55;99951.47;5066434;28;904;-52
2024/04/02 06:36:21;;;;;;;;;;;;;;;16.13;53.76;99932.44;5060156;28;1151;-56
2024/04/02 06:38:47;;;;;;;;;;;;;;;16.07;53.94;99940.75;5068911;28;1027;-56
2024/04/02 06:41:12;;;;;;;;;;;;;;;16.06;53.93;99933.63;5059626;28;1906;-53
2024/04/02 06:43:38;;;;;;;;;;;;;;;16.58;53.58;99944.00;5069167;28;1155;-52
2024/04/02 06:46:03;;;;;;;;;;;;;;;17.86;50.74;99949.50;5060246;28;986;-52
2024/04/02 06:48:29;;;;;;;;;;;;;;;17.07;52.62;99962.03;5066345;28;1079;-48
2024/04/02 06:51:01;;;;;;;;;;;;;;;16.69;53.71;99961.97;5061185;28;1031;-51
2024/04/02 06:53:27;;;;;;;;;;;;;;;16.50;54.03;99961.13;5049592;28;1072;-56
2024/04/02 06:55:53;;;;;;;;;;;;;;;16.39;54.26;99957.66;5074280;28;1047;-57
2024/04/02 06:58:18;;;;;;;;;;;;;;;16.33;54.00;99947.88;5056999;28;942;-57
2024/04/02 07:00:44;;;;;;;;;;;;;;;16.21;54.47;99956.50;5059219;28;1059;-55
2024/04/02 07:03:13;;;;;;;;;;;;;;;16.15;54.45;99946.69;5049661;28;1913;-57
2024/04/02 07:05:39;;;;;;;;;;;;;;;16.12;54.39;99944.50;5070321;28;1172;-53
2024/04/02 07:08:04;;;;;;;;;;;;;;;16.13;54.46;99963.44;5066510;28;1076;-54
2024/04/02 07:10:30;;;;;;;;;;;;;;;17.60;51.48;99963.69;5073306;28;1064;-51
2024/04/02 07:12:55;;;;;;;;;;;;;;;17.23;52.17;99961.81;5066765;28;1233;-54
2024/04/02 07:15:21;;;;;;;;;;;;;;;16.79;53.39;99965.69;5070168;28;1214;-52
2024/04/02 07:17:47;;;;;;;;;;;;;;;16.55;53.93;99972.00;5067114;28;1019;-54
2024/04/02 07:20:12;;;;;;;;;;;;;;;16.42;54.17;99970.78;5062939;28;1151;-53
2024/04/02 07:22:38;;;;;;;;;;;;;;;16.35;54.08;99965.66;5076720;28;1913;-54
2024/04/02 07:25:04;;;;;;;;;;;;;;;16.34;54.20;99942.09;5072845;28;1133;-49
2024/04/02 07:27:30;;;;;;;;;;;;;;;16.24;54.46;99942.19;5067092;28;1179;-49
2024/04/02 07:29:56;;;;;;;;;;;;;;;16.16;54.41;99942.81;5073918;28;1039;-53
2024/04/02 07:32:21;;;;;;;;;;;;;;;17.28;52.32;99942.50;5065318;28;1071;-53
2024/04/02 07:34:47;;;;;;;;;;;;;;;17.45;51.85;99947.47;5060446;28;1083;-56
2024/04/02 07:37:12;;;;;;;;;;;;;;;16.87;53.44;99948.56;5075882;28;1023;-55
2024/04/02 07:39:38;;;;;;;;;;;;;;;16.57;53.86;99950.59;5074117;28;1050;-55
2024/04/02 07:42:03;;;;;;;;;;;;;;;16.55;54.08;99953.63;5056707;28;1984;-51
2024/04/02 07:44:29;;;;;;;;;;;;;;;16.34;54.42;99944.00;5070817;28;1158;-57
2024/04/02 07:46:54;;;;;;;;;;;;;;;16.35;54.31;99946.44;5067839;28;995;-58
2024/04/02 07:49:20;;;;;;;;;;;;;;;16.29;54.54;99947.63;5056373;28;1258;-56
2024/04/02 07:51:45;;;;;;;;;;;;;;;16.25;54.50;99952.06;5064928;28;1115;-53
2024/04/02 07:54:11;;;;;;;;;;;;;;;16.13;54.80;99948.91;5063162;28;1043;-56
2024/04/02 07:56:36;;;;;;;;;;;;;;;16.19;54.40;99947.75;5069188;28;1143;-50
2024/04/02 07:59:04;;;;;;;;;;;;;;;16.07;54.83;99928.94;5073947;28;1086;-56
2024/04/02 08:01:29;;;;;;;;;;;;;;;16.04;54.71;99924.84;5056147;28;2000;-56
2024/04/02 08:03:55;;;;;;;;;;;;;;;16.97;53.03;99929.25;5056242;28;1123;-59
2024/04/02 08:06:20;;;;;;;;;;;;;;;17.68;51.63;99928.38;5056411;28;1115;-57
2024/04/02 08:08:48;;;;;;;;;;;;;;;16.90;53.33;99931.50;5069381;28;1261;-56
2024/04/02 08:11:14;;;;;;;;;;;;;;;16.67;54.07;99942.22;5065731;28;1194;-56
2024/04/02 08:13:39;;;;;;;;;;;;;;;16.51;54.36;99929.78;5060132;28;1031;-59
2024/04/02 08:16:05;;;;;;;;;;;;;;;16.43;54.42;99931.28;5066031;28;1190;-57
2024/04/02 08:18:31;;;;;;;;;;;;;;;16.36;54.47;99926.13;5062558;28;1135;-54
2024/04/02 08:20:56;;;;;;;;;;;;;;;16.33;54.42;99924.00;5051752;28;1917;-50
2024/04/02 08:23:21;;;;;;;;;;;;;;;16.29;54.60;99911.16;5059676;28;1078;-53
2024/04/02 08:25:47;;;;;;;;;;;;;;;16.16;54.54;99910.75;5065453;28;1067;-53
2024/04/02 08:28:12;;;;;;;;;;;;;;;16.21;54.59;99893.41;5059639;28;1151;-57
2024/04/02 08:30:38;;;;;;;;;;;;;;;16.80;53.54;99893.19;5065601;28;1091;-57
2024/04/02 08:33:03;;;;;;;;;;;;;;;17.87;50.91;99885.13;5062899;28;1150;-58
2024/04/02 08:35:29;;;;;;;;;;;;;;;17.10;52.82;99875.47;5067129;28;1106;-57
2024/04/02 08:37:54;;;;;;;;;;;;;;;16.76;53.81;99874.56;5071150;28;1048;-53
2024/04/02 08:40:21;;;;;;;;;;;;;;;16.62;54.09;99878.34;5076146;28;1059;-54
2024/04/02 08:42:46;;;;;;;;;;;;;;;16.55;54.04;99871.31;5045091;28;1968;-55
2024/04/02 08:45:12;;;;;;;;;;;;;;;16.45;54.25;99854.97;5053743;28;1063;-56
2024/04/02 08:47:37;;;;;;;;;;;;;;;16.39;54.33;99864.38;5052725;28;1087;-53
2024/04/02 08:50:04;;;;;;;;;;;;;;;16.40;54.48;99861.34;5080032;28;1101;-52
2024/04/02 08:52:29;;;;;;;;;;;;;;;16.31;54.61;99862.28;5066197;28;1078;-52
2024/04/02 08:54:55;;;;;;;;;;;;;;;16.25;54.63;99861.53;5079332;28;1078;-52
2024/04/02 08:57:20;;;;;;;;;;;;;;;16.20;54.64;99872.56;5076747;28;1110;-52
2024/04/02 08:59:46;;;;;;;;;;;;;;;16.21;54.45;99863.22;5079338;28;1133;-54
2024/04/02 09:02:11;;;;;;;;;;;;;;;16.15;54.84;99858.94;5047315;28;1971;-53
2024/04/02 09:04:37;;;;;;;;;;;;;;;16.28;54.63;99854.66;5061876;28;1060;-54
2024/04/02 09:07:02;;;;;;;;;;;;;;;17.71;51.53;99851.63;5065579;28;1086;-57
2024/04/02 09:09:28;;;;;;;;;;;;;;;17.09;53.11;99849.13;5074811;28;1126;-54
2024/04/02 09:11:53;;;;;;;;;;;;;;;16.70;53.82;99831.81;5073383;28;1219;-55
2024/04/02 09:14:19;;;;;;;;;;;;;;;16.55;54.41;99824.66;5079407;28;1110;-57
2024/04/02 09:16:44;;;;;;;;;;;;;;;16.39;54.80;99815.78;5078705;28;1165;-56
2024/04/02 09:19:10;;;;;;;;;;;;;;;16.43;54.58;99789.41;5079460;28;1058;-56
2024/04/02 09:21:35;;;;;;;;;;;;;;;16.45;54.37;99800.06;5074894;28;1905;-56
2024/04/02 09:24:01;;;;;;;;;;;;;;;16.37;54.60;99807.06;5079293;28;1031;-54
2024/04/02 09:26:27;;;;;;;;;;;;;;;16.33;54.51;99799.72;5078395;28;1125;-56
2024/04/02 09:28:52;;;;;;;;;;;;;;;16.29;54.41;99799.50;5079451;28;1051;-54
2024/04/02 09:31:18;;;;;;;;;;;;;;;16.23;54.64;99779.53;5078554;28;1153;-56
2024/04/02 09:33:49;;;;;;;;;;;;;;;16.19;54.45;99789.47;5076886;28;1038;-57
2024/04/02 09:36:32;;;;;;;;;;;;;;;16.24;54.39;99792.16;5064959;28;1111;-55
2024/04/02 09:38:58;;;;;;;;;;;;;;;16.16;54.66;99783.75;5068328;28;1166;-56
2024/04/02 09:41:26;;;;;;;;;;;;;;;16.15;54.48;99771.16;5044539;28;1971;-57
2024/04/02 09:43:51;;;;;;;;;;;;;;;16.99;53.14;99775.94;5061298;28;1063;-57
2024/04/02 09:46:17;;;;;;;;;;;;;;;17.69;51.29;99760.38;5071705;28;1212;-56
2024/04/02 09:48:42;;;;;;;;;;;;;;;17.04;52.86;99770.38;5047683;28;1120;-56
2024/04/02 09:51:08;;;;;;;;;;;;;;;16.77;53.73;99760.91;5053675;28;1130;-58
2024/04/02 09:53:34;;;;;;;;;;;;;;;16.70;53.71;99767.88;5027690;28;1293;-48
2024/04/02 09:55:59;;;;;;;;;;;;;;;16.56;53.92;99770.56;5050074;28;1144;-47
2024/04/02 09:58:25;;;;;;;;;;;;;;;16.55;54.05;99767.00;5046423;28;1046;-56
2024/04/02 10:00:52;;;;;;;;;;;;;;;16.47;54.06;99767.69;5058731;28;1123;-57
2024/04/02 10:03:18;;;;;;;;;;;;;;;16.45;54.13;99760.84;5057119;28;1967;-54
2024/04/02 10:05:44;;;;;;;;;;;;;;;16.37;54.31;99757.69;5067294;28;1497;-54
2024/04/02 10:08:10;;;;;;;;;;;;;;;16.36;54.25;99756.03;5077283;28;1070;-54
2024/04/02 10:10:48;;;;;;;;;;;;;;;16.36;54.40;99758.78;5067465;28;1024;-57
2024/04/02 10:13:14;;;;;;;;;;;;;;;16.27;54.59;99748.78;5075801;28;1178;-57
2024/04/02 10:15:39;;;;;;;;;;;;;;;16.24;54.61;99747.44;5077520;28;1109;-58
2024/04/02 10:18:05;;;;;;;;;;;;;;;16.22;54.46;99746.94;5046232;28;1071;-57
2024/04/02 10:20:31;;;;;;;;;;;;;;;16.17;54.67;99736.84;5077825;28;1059;-57
2024/04/02 10:22:57;;;;;;;;;;;;;;;16.22;54.45;99733.22;5054200;28;1977;-53
2024/04/02 10:25:23;;;;;;;;;;;;;;;16.22;54.38;99763.38;5078073;28;1101;-53
2024/04/02 10:27:48;;;;;;;;;;;;;;;16.22;54.47;99755.97;5076372;28;1062;-56
2024/04/02 10:30:15;;;;;;;;;;;;;;;16.22;54.35;99772.41;5068492;28;1035;-57
2024/04/02 10:32:41;;;;;;;;;;;;;;;17.61;51.84;99772.06;5053142;28;1094;-56
2024/04/02 10:35:14;;;;;;;;;;;;;;;17.51;51.73;99764.84;5064306;28;1090;-57
2024/04/02 10:37:40;;;;;;;;;;;;;;;17.03;53.06;99778.91;5055350;28;1027;-51
2024/04/02 10:40:06;;;;;;;;;;;;;;;16.74;53.64;99755.19;5054792;28;1080;-56
2024/04/02 10:42:31;;;;;;;;;;;;;;;16.83;53.47;99811.06;5058851;28;1914;-49
2024/04/02 10:44:57;;;;;;;;;;;;;;;16.67;54.02;99821.44;5033526;28;1241;-49
2024/04/02 10:47:25;;;;;;;;;;;;;;;16.63;54.08;99811.38;5053308;28;1079;-52
2024/04/02 10:49:51;;;;;;;;;;;;;;;16.60;53.99;99832.78;5050842;28;1365;-49
2024/04/02 10:52:16;;;;;;;;;;;;;;;16.51;54.23;99822.78;5050722;28;1305;-47
2024/04/02 10:54:42;;;;;;;;;;;;;;;16.42;54.52;99826.22;5056743;28;1138;-58
2024/04/02 10:57:07;;;;;;;;;;;;;;;16.41;54.55;99829.22;5050710;28;1424;-52
2024/04/02 10:59:36;;;;;;;;;;;;;;;16.32;54.73;99836.50;5040806;28;999;-52
2024/04/02 11:02:09;;;;;;;;;;;;;;;16.30;54.89;99831.31;5056689;28;1933;-52
2024/04/02 11:04:34;;;;;;;;;;;;;;;16.25;54.78;99826.69;5039510;28;1317;-55
2024/04/02 11:07:00;;;;;;;;;;;;;;;16.26;54.59;99852.22;5039137;28;1227;-50
2024/04/02 11:09:25;;;;;;;;;;;;;;;16.15;54.87;99853.44;5059251;28;1044;-57
2024/04/02 11:11:52;;;;;;;;;;;;;;;16.25;55.13;99859.59;5047231;28;1264;-52
2024/04/02 11:14:17;;;;;;;;;;;;;;;17.64;52.70;99859.44;5040461;28;1496;-57
2024/04/02 11:16:44;;;;;;;;;;;;;;;17.22;53.54;99858.50;5036811;28;1325;-58
2024/04/02 11:19:09;;;;;;;;;;;;;;;16.83;54.56;99857.75;5045477;28;1048;-57
2024/04/02 11:21:37;;;;;;;;;;;;;;;16.72;54.80;99857.06;5019684;28;1926;-58
2024/04/02 11:26:49;;;;;;;;;;;;;;;16.49;54.91;99868.91;5044984;28;1056;-60
2024/04/02 11:29:15;;;;;;;;;;;;;;;16.39;55.16;99869.88;5047575;28;1306;-56
2024/04/02 11:31:40;;;;;;;;;;;;;;;16.41;54.99;99884.94;5055516;28;1033;-58
2024/04/02 11:34:06;;;;;;;;;;;;;;;16.41;54.92;99895.06;5075821;28;1059;-56
2024/04/02 11:36:31;;;;;;;;;;;;;;;16.35;54.92;99891.56;5069888;28;1144;-58
2024/04/02 11:38:57;;;;;;;;;;;;;;;16.30;54.87;99883.44;5056994;28;1012;-54
2024/04/02 11:41:23;;;;;;;;;;;;;;;16.29;55.13;99890.03;5051566;28;1913;-55
2024/04/02 11:43:48;;;;;;;;;;;;;;;16.17;55.27;99864.94;5043301;28;996;-56
2024/04/02 11:46:14;;;;;;;;;;;;;;;16.16;55.24;99868.78;5043027;28;1119;-54
2024/04/02 11:48:39;;;;;;;;;;;;;;;16.17;55.03;99878.63;5051914;28;1392;-54
2024/04/02 11:51:05;;;;;;;;;;;;;;;16.70;54.82;99888.66;5056098;28;1108;-56
2024/04/02 11:53:31;;;;;;;;;;;;;;;17.74;52.77;99880.41;5052859;28;1346;-56
2024/04/02 11:55:56;;;;;;;;;;;;;;;17.00;54.54;99879.19;5061235;28;1119;-56
2024/04/02 12:01:06;;;;;;;;;;;;;;;16.60;55.13;99890.44;5041979;28;1909;-56
2024/04/02 12:03:32;;;;;;;;;;;;;;;16.49;55.33;99896.34;5036080;28;1154;-59
2024/04/02 12:05:57;;;;;;;;;;;;;;;16.50;55.29;99900.75;5023481;28;1073;-60
2024/04/02 12:08:23;;;;;;;;;;;;;;;16.33;55.52;99915.75;5055918;28;1457;-58
2024/04/02 12:10:49;;;;;;;;;;;;;;;16.31;55.37;99896.00;5070395;28;1048;-59
2024/04/02 12:13:15;;;;;;;;;;;;;;;16.28;55.57;99907.59;5055191;28;988;-59
2024/04/02 12:15:40;;;;;;;;;;;;;;;16.23;55.20;99899.44;5055729;28;1126;-58
2024/04/02 12:18:06;;;;;;;;;;;;;;;16.19;55.47;99901.94;5045501;28;1138;-59
2024/04/02 12:20:31;;;;;;;;;;;;;;;16.82;55.01;99889.03;5041553;28;1080;-58
2024/04/02 12:22:57;;;;;;;;;;;;;;;17.86;52.76;99886.25;5062243;28;1886;-57
2024/04/02 12:25:22;;;;;;;;;;;;;;;17.13;54.35;99904.28;5073645;28;1074;-57
2024/04/02 12:27:48;;;;;;;;;;;;;;;16.86;55.03;99894.78;5060072;28;1015;-56
2024/04/02 12:30:14;;;;;;;;;;;;;;;16.70;55.24;99872.19;5046247;28;1226;-57
2024/04/02 12:32:41;;;;;;;;;;;;;;;16.63;55.33;99889.03;5068731;28;1150;-56
2024/04/02 12:35:06;;;;;;;;;;;;;;;16.51;55.60;99885.88;5076784;28;1024;-56
2024/04/02 12:37:32;;;;;;;;;;;;;;;16.46;55.37;99888.72;5080140;28;1038;-55
2024/04/02 12:39:58;;;;;;;;;;;;;;;16.46;55.34;99885.97;5062318;28;1035;-52
2024/04/02 12:42:23;;;;;;;;;;;;;;;16.33;55.51;99885.56;5048009;28;1910;-58
2024/04/02 12:44:50;;;;;;;;;;;;;;;16.29;55.33;99901.00;5059187;28;1083;-55
2024/04/02 12:47:15;;;;;;;;;;;;;;;16.27;55.21;99903.22;5058766;28;1078;-48
2024/04/02 12:49:41;;;;;;;;;;;;;;;16.18;55.50;99892.06;5048815;28;1139;-58
2024/04/02 12:52:07;;;;;;;;;;;;;;;16.17;55.41;99900.59;5042136;28;1325;-56